Time;durP1;ratioP1;P1;durP2;ratioP2;P2;SDS_P1;SDS_P2;PMS_P1;PMS_P2;Temp;Humidity;BMP_temperature;BMP_pressure;BME280_temperature;BME280_humidity;BME280_pressure;Samples;Min_cycle;Max_cycle;Signal;HPM_P1;HPM_P2
2024/01/21 00:01:37;;;;;;;;;;;0.10;99.90;;;;;;5115125;27;19923;-33
2024/01/21 00:04:05;;;;;;;;;;;0.20;99.90;;;;;;5131714;27;20305;-32
2024/01/21 00:06:31;;;;;;;;;;;0.10;99.90;;;;;;5113351;27;19923;-32
2024/01/21 00:08:59;;;;;;;;;;;0.10;99.90;;;;;;5114427;27;19927;-31
2024/01/21 00:11:26;;;;;;;;;;;0.10;99.90;;;;;;5116720;27;20386;-32
2024/01/21 00:13:53;;;;;;;;;;;0.10;99.90;;;;;;5134282;27;19968;-31
2024/01/21 00:16:19;;;;;;;;;;;0.10;99.90;;;;;;5115514;27;19927;-32
2024/01/21 00:18:46;;;;;;;;;;;0.10;99.90;;;;;;5115546;27;19962;-32
2024/01/21 00:21:12;;;;;;;;;;;0.10;99.90;;;;;;5114268;27;20428;-32
2024/01/21 00:23:39;;;;;;;;;;;0.10;99.90;;;;;;5111973;27;19972;-33
2024/01/21 00:26:07;;;;;;;;;;;0.10;99.90;;;;;;5131809;27;19977;-33
2024/01/21 00:28:34;;;;;;;;;;;0.10;99.90;;;;;;5115891;27;19972;-32
2024/01/21 00:31:03;;;;;;;;;;;0.10;99.90;;;;;;5114052;27;19927;-32
2024/01/21 00:33:29;;;;;;;;;;;0.10;99.90;;;;;;5132839;27;20355;-33
2024/01/21 00:35:56;;;;;;;;;;;0.10;99.90;;;;;;5115586;27;19953;-32
2024/01/21 00:38:23;;;;;;;;;;;0.10;99.90;;;;;;5115307;27;19923;-34
2024/01/21 00:40:50;;;;;;;;;;;0.10;99.90;;;;;;5113391;27;19976;-33
2024/01/21 00:43:18;;;;;;;;;;;0.10;99.90;;;;;;5132937;27;19949;-32
2024/01/21 00:45:45;;;;;;;;;;;0.20;99.90;;;;;;5114833;27;19923;-34
2024/01/21 00:48:11;;;;;;;;;;;0.10;99.90;;;;;;5116239;27;19923;-33
2024/01/21 00:50:38;;;;;;;;;;;0.10;99.90;;;;;;5115308;27;19969;-32
2024/01/21 00:53:05;;;;;;;;;;;0.00;99.90;;;;;;5113964;27;19962;-33
2024/01/21 00:55:31;;;;;;;;;;;0.10;99.90;;;;;;5114433;27;19924;-33
2024/01/21 00:57:58;;;;;;;;;;;0.10;99.90;;;;;;5132105;27;19935;-32
2024/01/21 01:00:27;;;;;;;;;;;0.10;99.90;;;;;;5134013;27;19927;-31
2024/01/21 01:02:53;;;;;;;;;;;0.10;99.90;;;;;;5110845;28;19978;-33
2024/01/21 01:05:21;;;;;;;;;;;0.20;99.90;;;;;;5112394;27;20082;-32
2024/01/21 01:07:47;;;;;;;;;;;0.10;99.90;;;;;;5114159;27;19970;-33
2024/01/21 01:10:15;;;;;;;;;;;0.10;99.90;;;;;;5132205;27;19996;-33
2024/01/21 01:12:42;;;;;;;;;;;0.10;99.90;;;;;;5115946;27;20375;-32
2024/01/21 01:15:09;;;;;;;;;;;0.10;99.90;;;;;;5131781;27;19924;-32
2024/01/21 01:17:37;;;;;;;;;;;0.10;99.90;;;;;;5126070;27;19977;-32
2024/01/21 01:20:04;;;;;;;;;;;0.10;99.90;;;;;;5128582;27;19923;-33
2024/01/21 01:22:31;;;;;;;;;;;0.10;99.90;;;;;;5113098;27;20012;-32
2024/01/21 01:24:57;;;;;;;;;;;0.10;99.90;;;;;;5133393;27;19966;-32
2024/01/21 01:27:24;;;;;;;;;;;0.10;99.90;;;;;;5114400;27;19935;-34
2024/01/21 01:29:51;;;;;;;;;;;0.20;99.90;;;;;;5111509;28;19969;-33
2024/01/21 01:32:18;;;;;;;;;;;0.20;99.90;;;;;;5130377;27;19962;-33
2024/01/21 01:34:46;;;;;;;;;;;0.20;99.90;;;;;;5113607;28;19983;-32
2024/01/21 01:37:13;;;;;;;;;;;0.10;99.90;;;;;;5111618;27;19924;-33
2024/01/21 01:39:40;;;;;;;;;;;0.20;99.90;;;;;;5114699;27;19992;-32
2024/01/21 01:42:06;;;;;;;;;;;0.10;99.90;;;;;;5095595;28;19928;-31
2024/01/21 01:44:33;;;;;;;;;;;0.20;99.90;;;;;;5107633;28;19924;-31
2024/01/21 01:47:00;;;;;;;;;;;0.30;99.90;;;;;;5110299;28;19929;-31
2024/01/21 01:49:27;;;;;;;;;;;0.20;99.90;;;;;;5114168;28;19923;-33
2024/01/21 01:51:56;;;;;;;;;;;0.30;99.90;;;;;;5105703;28;19924;-31
2024/01/21 01:54:23;;;;;;;;;;;0.30;99.90;;;;;;5130969;27;19931;-31
2024/01/21 01:56:50;;;;;;;;;;;0.30;99.90;;;;;;5132567;27;20386;-32
2024/01/21 01:59:17;;;;;;;;;;;0.30;99.90;;;;;;5113470;28;19984;-32
2024/01/21 02:01:43;;;;;;;;;;;0.30;99.90;;;;;;5130250;28;19970;-32
2024/01/21 02:04:11;;;;;;;;;;;0.30;99.90;;;;;;5113700;28;20051;-32
2024/01/21 02:06:38;;;;;;;;;;;0.30;99.90;;;;;;5113339;28;19930;-32
2024/01/21 02:09:06;;;;;;;;;;;0.40;99.90;;;;;;5111790;27;19986;-32
2024/01/21 02:11:33;;;;;;;;;;;0.40;99.90;;;;;;5116345;27;19951;-32
2024/01/21 02:14:00;;;;;;;;;;;0.40;99.90;;;;;;5118695;27;19927;-33
2024/01/21 02:16:26;;;;;;;;;;;0.30;99.90;;;;;;5117299;27;20366;-32
2024/01/21 02:18:53;;;;;;;;;;;0.30;99.90;;;;;;5117484;27;19923;-32
2024/01/21 02:21:20;;;;;;;;;;;0.30;99.90;;;;;;5117619;27;19928;-33
2024/01/21 02:23:48;;;;;;;;;;;0.40;99.90;;;;;;5115597;27;19927;-32
2024/01/21 02:26:14;;;;;;;;;;;0.40;99.90;;;;;;5117059;27;19924;-31
2024/01/21 02:28:41;;;;;;;;;;;0.40;99.90;;;;;;5117285;27;19971;-31
2024/01/21 02:31:08;;;;;;;;;;;0.40;99.90;;;;;;5115318;27;19928;-32
2024/01/21 02:33:34;;;;;;;;;;;0.50;99.90;;;;;;5116943;27;19972;-32
2024/01/21 02:36:01;;;;;;;;;;;0.50;99.90;;;;;;5115830;27;19924;-31
2024/01/21 02:38:27;;;;;;;;;;;0.50;99.90;;;;;;5117934;27;20375;-32
2024/01/21 02:40:55;;;;;;;;;;;0.50;99.90;;;;;;5134919;27;19923;-31
2024/01/21 02:43:22;;;;;;;;;;;0.50;99.90;;;;;;5116915;27;19923;-32
2024/01/21 02:45:49;;;;;;;;;;;0.50;99.90;;;;;;5117310;27;19924;-32
2024/01/21 02:48:15;;;;;;;;;;;0.50;99.90;;;;;;5116390;27;19976;-32
2024/01/21 02:50:42;;;;;;;;;;;0.50;99.90;;;;;;5136211;27;20303;-32
2024/01/21 02:53:09;;;;;;;;;;;0.60;99.90;;;;;;5116585;27;19945;-31
2024/01/21 02:55:35;;;;;;;;;;;0.60;99.90;;;;;;5116783;27;19928;-33
2024/01/21 02:58:03;;;;;;;;;;;0.60;99.90;;;;;;5116509;27;19923;-32
2024/01/21 03:00:30;;;;;;;;;;;0.70;99.90;;;;;;5117621;27;19927;-32
2024/01/21 03:02:57;;;;;;;;;;;0.60;99.90;;;;;;5133786;27;19967;-31
2024/01/21 03:05:24;;;;;;;;;;;0.70;99.90;;;;;;5116246;27;19927;-31
2024/01/21 03:07:50;;;;;;;;;;;0.60;99.90;;;;;;5116682;27;19933;-32
2024/01/21 03:10:17;;;;;;;;;;;0.70;99.90;;;;;;5115612;27;19924;-32
2024/01/21 03:12:43;;;;;;;;;;;0.70;99.90;;;;;;5116458;27;19963;-31
2024/01/21 03:15:11;;;;;;;;;;;0.60;99.90;;;;;;5116930;27;19927;-32
2024/01/21 03:17:38;;;;;;;;;;;0.70;99.90;;;;;;5097533;28;20340;-32
2024/01/21 03:20:05;;;;;;;;;;;0.70;99.90;;;;;;5112065;27;19923;-33
2024/01/21 03:22:32;;;;;;;;;;;0.70;99.90;;;;;;5133633;27;20298;-33
2024/01/21 03:24:59;;;;;;;;;;;0.80;99.90;;;;;;5115800;27;19960;-31
2024/01/21 03:27:26;;;;;;;;;;;0.80;99.90;;;;;;5116539;27;20319;-32
2024/01/21 03:29:52;;;;;;;;;;;0.80;99.90;;;;;;5117628;27;19927;-32
2024/01/21 03:32:20;;;;;;;;;;;0.90;99.90;;;;;;5134030;27;19927;-33
2024/01/21 03:34:47;;;;;;;;;;;0.90;99.90;;;;;;5115654;27;19974;-31
2024/01/21 03:37:14;;;;;;;;;;;0.90;99.90;;;;;;5114405;27;19984;-32
2024/01/21 03:39:40;;;;;;;;;;;1.00;99.90;;;;;;5115943;27;19927;-31
2024/01/21 03:42:07;;;;;;;;;;;0.90;99.90;;;;;;5135153;27;19981;-31
2024/01/21 03:44:33;;;;;;;;;;;0.90;99.90;;;;;;5117050;27;19966;-32
2024/01/21 03:47:00;;;;;;;;;;;0.90;99.90;;;;;;5116243;27;19972;-33
2024/01/21 03:49:28;;;;;;;;;;;0.90;99.90;;;;;;5114909;27;20299;-33
2024/01/21 03:51:55;;;;;;;;;;;0.90;99.90;;;;;;5115725;27;20328;-32
2024/01/21 03:54:22;;;;;;;;;;;0.90;99.90;;;;;;5133798;27;19931;-31
2024/01/21 03:56:49;;;;;;;;;;;0.90;99.90;;;;;;5117341;27;20328;-32
2024/01/21 03:59:15;;;;;;;;;;;0.90;99.90;;;;;;5132886;27;20341;-32
2024/01/21 04:01:42;;;;;;;;;;;0.90;99.90;;;;;;5112779;27;20386;-31
2024/01/21 04:04:09;;;;;;;;;;;0.90;99.90;;;;;;5112179;27;20048;-32
2024/01/21 04:06:39;;;;;;;;;;;0.90;99.90;;;;;;5117337;27;19923;-32
2024/01/21 04:09:06;;;;;;;;;;;0.90;99.90;;;;;;5115933;27;19976;-32
2024/01/21 04:11:32;;;;;;;;;;;0.90;99.90;;;;;;5115565;27;19959;-32
2024/01/21 04:13:59;;;;;;;;;;;0.90;99.90;;;;;;5134252;27;20276;-31
2024/01/21 04:16:26;;;;;;;;;;;0.90;99.90;;;;;;5110013;27;19992;-32
2024/01/21 04:18:52;;;;;;;;;;;0.90;99.90;;;;;;5115167;27;20011;-32
2024/01/21 04:21:19;;;;;;;;;;;1.00;99.90;;;;;;5116189;27;19976;-32
2024/01/21 04:23:47;;;;;;;;;;;0.90;99.90;;;;;;5133471;27;19923;-31
2024/01/21 04:26:15;;;;;;;;;;;0.90;99.90;;;;;;5114618;27;19923;-32
2024/01/21 04:28:41;;;;;;;;;;;0.90;99.90;;;;;;5115133;27;19931;-32
2024/01/21 04:31:07;;;;;;;;;;;0.90;99.90;;;;;;5115558;27;19927;-34
2024/01/21 04:33:34;;;;;;;;;;;0.90;99.90;;;;;;5132159;27;19924;-32
2024/01/21 04:36:00;;;;;;;;;;;1.00;99.90;;;;;;5115309;27;19958;-31
2024/01/21 04:38:27;;;;;;;;;;;0.90;99.90;;;;;;5114563;27;19977;-32
2024/01/21 04:40:55;;;;;;;;;;;0.90;99.90;;;;;;5115447;27;19976;-32
2024/01/21 04:43:21;;;;;;;;;;;0.90;99.90;;;;;;5114835;27;19931;-31
2024/01/21 04:45:48;;;;;;;;;;;0.90;99.90;;;;;;5134604;27;19923;-32
2024/01/21 04:48:15;;;;;;;;;;;1.00;99.90;;;;;;5114087;27;20307;-32
2024/01/21 04:50:41;;;;;;;;;;;0.90;99.90;;;;;;5114469;27;20402;-32
2024/01/21 04:53:08;;;;;;;;;;;0.90;99.90;;;;;;5114359;27;19923;-32
2024/01/21 04:55:35;;;;;;;;;;;0.90;99.90;;;;;;5115291;27;19927;-31
2024/01/21 04:58:03;;;;;;;;;;;0.90;99.90;;;;;;5134091;27;19935;-32
2024/01/21 05:00:29;;;;;;;;;;;0.90;99.90;;;;;;5113220;27;19928;-33
2024/01/21 05:02:56;;;;;;;;;;;0.90;99.90;;;;;;5114632;27;19924;-33
2024/01/21 05:05:22;;;;;;;;;;;0.90;99.90;;;;;;5114273;27;19999;-33
2024/01/21 05:07:51;;;;;;;;;;;0.90;99.90;;;;;;5109738;27;19923;-32
2024/01/21 05:10:18;;;;;;;;;;;0.90;99.90;;;;;;5114423;27;19929;-33
2024/01/21 05:12:44;;;;;;;;;;;0.90;99.90;;;;;;5110109;27;19972;-32
2024/01/21 05:15:12;;;;;;;;;;;0.90;99.90;;;;;;5132085;27;19927;-34
2024/01/21 05:17:39;;;;;;;;;;;0.90;99.90;;;;;;5101592;27;20334;-32
2024/01/21 05:20:08;;;;;;;;;;;0.80;99.90;;;;;;5133106;27;19923;-32
2024/01/21 05:22:35;;;;;;;;;;;0.80;99.90;;;;;;5108793;27;20016;-32
2024/01/21 05:25:03;;;;;;;;;;;0.80;99.90;;;;;;5113026;27;19972;-32
2024/01/21 05:27:29;;;;;;;;;;;0.80;99.90;;;;;;5112555;27;20456;-32
2024/01/21 05:29:56;;;;;;;;;;;0.80;99.90;;;;;;5114783;27;19966;-32
2024/01/21 05:32:24;;;;;;;;;;;0.90;99.90;;;;;;5113158;27;19931;-32
2024/01/21 05:34:51;;;;;;;;;;;0.80;99.90;;;;;;5131461;27;19927;-32
2024/01/21 05:37:17;;;;;;;;;;;0.90;99.90;;;;;;5114235;27;19927;-32
2024/01/21 05:39:44;;;;;;;;;;;0.90;99.90;;;;;;5133220;27;20142;-33
2024/01/21 05:42:11;;;;;;;;;;;0.90;99.90;;;;;;5113519;27;20492;-33
2024/01/21 05:44:37;;;;;;;;;;;1.00;99.90;;;;;;5112684;27;19924;-33
2024/01/21 05:47:04;;;;;;;;;;;1.00;99.90;;;;;;5112132;27;19969;-32
2024/01/21 05:49:32;;;;;;;;;;;1.00;99.90;;;;;;5112637;28;19923;-32
2024/01/21 05:51:59;;;;;;;;;;;1.00;99.90;;;;;;5114910;28;19976;-32
2024/01/21 05:54:26;;;;;;;;;;;1.10;99.90;;;;;;5112915;27;20008;-34
2024/01/21 05:56:53;;;;;;;;;;;1.10;99.90;;;;;;5111800;27;19972;-32
2024/01/21 05:59:20;;;;;;;;;;;1.20;99.90;;;;;;5111516;28;20000;-32
2024/01/21 06:01:47;;;;;;;;;;;1.20;99.90;;;;;;5112379;28;20018;-32
2024/01/21 06:04:14;;;;;;;;;;;1.20;99.90;;;;;;5113276;28;19967;-32
2024/01/21 06:06:42;;;;;;;;;;;1.30;99.90;;;;;;5109806;28;19984;-31
2024/01/21 06:09:09;;;;;;;;;;;1.20;99.90;;;;;;5132965;28;19930;-32
2024/01/21 06:11:35;;;;;;;;;;;1.40;99.90;;;;;;5113768;28;19968;-32
2024/01/21 06:14:02;;;;;;;;;;;1.30;99.90;;;;;;5113695;28;20366;-33
2024/01/21 06:16:28;;;;;;;;;;;1.40;99.90;;;;;;5121966;28;19966;-33
2024/01/21 06:18:55;;;;;;;;;;;1.40;99.90;;;;;;5110491;28;19923;-34
2024/01/21 06:21:22;;;;;;;;;;;1.50;99.90;;;;;;5115231;28;19923;-31
2024/01/21 06:23:50;;;;;;;;;;;1.50;99.80;;;;;;5131008;28;20019;-30
2024/01/21 06:26:17;;;;;;;;;;;1.50;99.90;;;;;;5110748;28;19974;-32
2024/01/21 06:28:44;;;;;;;;;;;1.60;99.90;;;;;;5114351;28;20282;-32
2024/01/21 06:31:10;;;;;;;;;;;1.60;99.90;;;;;;5113905;28;19930;-31
2024/01/21 06:33:37;;;;;;;;;;;1.50;99.90;;;;;;5111923;28;19984;-31
2024/01/21 06:36:04;;;;;;;;;;;1.50;99.90;;;;;;5131291;28;20344;-32
2024/01/21 06:38:31;;;;;;;;;;;1.50;99.90;;;;;;5102924;28;19924;-31
2024/01/21 06:40:59;;;;;;;;;;;1.60;99.90;;;;;;5111422;28;19923;-31
2024/01/21 06:43:25;;;;;;;;;;;1.50;99.90;;;;;;5131160;28;19923;-31
2024/01/21 06:45:52;;;;;;;;;;;1.50;99.90;;;;;;5113447;28;19923;-32
2024/01/21 06:48:19;;;;;;;;;;;1.50;99.90;;;;;;5112917;28;19930;-31
2024/01/21 06:50:48;;;;;;;;;;;1.50;99.90;;;;;;5112641;28;19927;-32
2024/01/21 06:53:15;;;;;;;;;;;1.50;99.90;;;;;;5112388;28;19923;-32
2024/01/21 06:55:41;;;;;;;;;;;1.50;99.90;;;;;;5112982;27;19931;-32
2024/01/21 06:58:09;;;;;;;;;;;1.50;99.90;;;;;;5117969;27;19923;-32
2024/01/21 07:00:36;;;;;;;;;;;1.50;99.90;;;;;;5133844;27;19924;-31
2024/01/21 07:03:03;;;;;;;;;;;1.50;99.90;;;;;;5115534;27;19923;-33
2024/01/21 07:05:29;;;;;;;;;;;1.50;99.90;;;;;;5133640;27;19924;-32
2024/01/21 07:07:56;;;;;;;;;;;1.40;99.90;;;;;;5116302;27;19924;-32
2024/01/21 07:10:23;;;;;;;;;;;1.40;99.90;;;;;;5116987;27;19949;-32
2024/01/21 07:12:50;;;;;;;;;;;1.50;99.90;;;;;;5116463;27;19930;-33
2024/01/21 07:15:18;;;;;;;;;;;1.40;99.90;;;;;;5113129;27;19928;-31
2024/01/21 07:17:44;;;;;;;;;;;1.50;99.90;;;;;;5104401;27;19924;-31
2024/01/21 07:20:12;;;;;;;;;;;1.40;99.90;;;;;;5116181;27;20286;-32
2024/01/21 07:22:38;;;;;;;;;;;1.50;99.90;;;;;;5117624;27;19923;-31
2024/01/21 07:25:07;;;;;;;;;;;1.50;99.90;;;;;;5117037;27;19924;-31
2024/01/21 07:27:34;;;;;;;;;;;1.50;99.90;;;;;;5115486;27;19929;-31
2024/01/21 07:30:01;;;;;;;;;;;1.50;99.90;;;;;;5113835;27;20347;-33
2024/01/21 07:32:29;;;;;;;;;;;1.50;99.90;;;;;;5131887;27;19976;-32
2024/01/21 07:34:55;;;;;;;;;;;1.50;99.90;;;;;;5134211;27;20340;-31
2024/01/21 07:37:22;;;;;;;;;;;1.50;99.90;;;;;;5116645;27;19949;-33
2024/01/21 07:39:49;;;;;;;;;;;1.50;99.90;;;;;;5134876;27;19963;-32
2024/01/21 07:42:16;;;;;;;;;;;1.50;99.90;;;;;;5114355;27;19930;-31
2024/01/21 07:44:43;;;;;;;;;;;1.50;99.90;;;;;;5112044;27;19956;-32
2024/01/21 07:47:10;;;;;;;;;;;1.40;99.90;;;;;;5116310;27;19924;-32
2024/01/21 07:49:38;;;;;;;;;;;1.40;99.90;;;;;;5117006;27;19927;-32
2024/01/21 07:52:05;;;;;;;;;;;1.40;99.90;;;;;;5112099;27;19923;-31
2024/01/21 07:54:32;;;;;;;;;;;1.40;99.90;;;;;;5114045;27;19927;-32
2024/01/21 07:56:58;;;;;;;;;;;1.50;99.90;;;;;;5112844;27;20400;-31
2024/01/21 07:59:25;;;;;;;;;;;1.50;99.90;;;;;;5115738;27;19968;-31
2024/01/21 08:01:51;;;;;;;;;;;1.50;99.90;;;;;;5134205;27;19927;-32
2024/01/21 08:04:18;;;;;;;;;;;1.60;99.90;;;;;;5107154;27;19928;-30
2024/01/21 08:06:45;;;;;;;;;;;1.60;99.90;;;;;;5105020;28;19932;-32
2024/01/21 08:09:12;;;;;;;;;;;1.50;99.90;;;;;;5110621;27;19935;-33
2024/01/21 08:11:38;;;;;;;;;;;1.60;99.90;;;;;;5133042;27;19935;-32
2024/01/21 08:14:05;;;;;;;;;;;1.60;99.90;;;;;;5115456;27;19923;-33
2024/01/21 08:16:32;;;;;;;;;;;1.60;99.90;;;;;;5114338;27;20371;-31
2024/01/21 08:18:59;;;;;;;;;;;1.50;99.90;;;;;;5113165;27;19976;-32
2024/01/21 08:21:25;;;;;;;;;;;1.60;99.90;;;;;;5132327;27;19976;-33
2024/01/21 08:23:53;;;;;;;;;;;1.60;99.90;;;;;;5114596;27;19927;-32
2024/01/21 08:26:20;;;;;;;;;;;1.60;99.90;;;;;;5114771;27;20018;-33
2024/01/21 08:28:47;;;;;;;;;;;1.70;99.90;;;;;;5132771;27;19976;-31
2024/01/21 08:31:14;;;;;;;;;;;1.70;99.90;;;;;;5112962;27;20469;-31
2024/01/21 08:33:41;;;;;;;;;;;1.70;99.90;;;;;;5111654;27;19985;-32
2024/01/21 08:36:08;;;;;;;;;;;1.70;99.90;;;;;;5114523;27;20279;-32
2024/01/21 08:38:34;;;;;;;;;;;1.70;99.90;;;;;;5113507;27;20377;-31
2024/01/21 08:41:03;;;;;;;;;;;1.80;99.90;;;;;;5133143;27;20386;-32
2024/01/21 08:43:29;;;;;;;;;;;1.70;99.90;;;;;;5107162;28;19924;-33
2024/01/21 08:45:56;;;;;;;;;;;1.80;99.90;;;;;;5112527;27;19980;-32
2024/01/21 08:48:23;;;;;;;;;;;1.70;99.90;;;;;;5114851;27;20371;-31
2024/01/21 08:50:49;;;;;;;;;;;1.70;99.90;;;;;;5132489;27;19969;-31
2024/01/21 08:53:16;;;;;;;;;;;1.70;99.90;;;;;;5115872;27;19981;-32
2024/01/21 08:55:42;;;;;;;;;;;1.80;99.90;;;;;;5113822;27;19928;-32
2024/01/21 08:58:10;;;;;;;;;;;1.80;99.90;;;;;;5113526;27;20399;-31
2024/01/21 09:00:37;;;;;;;;;;;1.80;99.90;;;;;;5114190;27;20013;-32
2024/01/21 09:03:05;;;;;;;;;;;1.90;99.90;;;;;;5131975;27;19976;-32
2024/01/21 09:05:32;;;;;;;;;;;1.90;99.90;;;;;;5134471;27;20291;-33
2024/01/21 09:07:58;;;;;;;;;;;2.00;99.90;;;;;;5114521;27;20379;-33
2024/01/21 09:10:25;;;;;;;;;;;2.00;99.90;;;;;;5113616;27;19970;-33
2024/01/21 09:12:51;;;;;;;;;;;2.00;99.90;;;;;;5130402;27;20082;-33
2024/01/21 09:15:21;;;;;;;;;;;2.00;99.90;;;;;;5113480;27;19930;-33
2024/01/21 09:17:48;;;;;;;;;;;2.10;99.90;;;;;;5113188;27;19924;-32
2024/01/21 09:20:15;;;;;;;;;;;2.10;99.90;;;;;;5115073;27;19965;-31
2024/01/21 09:22:42;;;;;;;;;;;2.10;99.90;;;;;;5131709;27;19923;-31
2024/01/21 09:25:09;;;;;;;;;;;2.10;99.90;;;;;;5113370;27;19928;-32
2024/01/21 09:27:35;;;;;;;;;;;2.10;99.90;;;;;;5113157;27;19924;-33
2024/01/21 09:30:02;;;;;;;;;;;2.10;99.90;;;;;;5113068;27;19984;-31
2024/01/21 09:32:31;;;;;;;;;;;2.10;99.90;;;;;;5133222;27;19923;-32
2024/01/21 09:34:58;;;;;;;;;;;2.10;99.90;;;;;;5129677;27;20318;-32
2024/01/21 09:37:24;;;;;;;;;;;2.10;99.90;;;;;;5131746;27;19968;-32
2024/01/21 09:39:51;;;;;;;;;;;2.20;99.90;;;;;;5113967;27;19972;-32
2024/01/21 09:42:18;;;;;;;;;;;2.30;99.90;;;;;;5112893;27;19976;-32
2024/01/21 09:44:45;;;;;;;;;;;2.30;99.90;;;;;;5132414;27;19923;-31
2024/01/21 09:47:12;;;;;;;;;;;2.30;99.90;;;;;;5131548;27;19930;-32
2024/01/21 09:49:40;;;;;;;;;;;2.40;99.90;;;;;;5131377;27;19965;-32
2024/01/21 09:52:07;;;;;;;;;;;2.40;99.90;;;;;;5131004;27;19984;-33
2024/01/21 09:54:33;;;;;;;;;;;2.40;99.90;;;;;;5113099;27;19923;-32
2024/01/21 09:57:00;;;;;;;;;;;2.50;99.90;;;;;;5129153;27;19927;-32
2024/01/21 09:59:28;;;;;;;;;;;2.50;99.90;;;;;;5113209;28;19924;-32
2024/01/21 10:01:54;;;;;;;;;;;2.60;99.90;;;;;;5132021;28;19973;-33
2024/01/21 10:04:22;;;;;;;;;;;2.70;99.90;;;;;;5131584;28;20352;-33
2024/01/21 10:06:51;;;;;;;;;;;2.70;99.90;;;;;;5113738;28;19931;-33
2024/01/21 10:09:18;;;;;;;;;;;2.70;99.90;;;;;;5131692;28;19927;-34
2024/01/21 10:11:49;;;;;;;;;;;2.70;99.90;;;;;;5109400;28;19968;-31
2024/01/21 10:14:16;;;;;;;;;;;2.80;99.90;;;;;;5132239;28;20360;-32
2024/01/21 10:16:42;;;;;;;;;;;2.90;99.90;;;;;;5123423;28;19923;-32
2024/01/21 10:19:11;;;;;;;;;;;2.90;99.90;;;;;;5130890;28;20310;-33
2024/01/21 10:21:38;;;;;;;;;;;2.90;99.90;;;;;;5112271;28;19923;-33
2024/01/21 10:24:08;;;;;;;;;;;2.90;99.90;;;;;;5130927;28;20353;-31
2024/01/21 10:26:36;;;;;;;;;;;3.00;99.90;;;;;;5130088;28;19974;-33
2024/01/21 10:29:03;;;;;;;;;;;3.00;99.90;;;;;;5112640;28;19927;-33
2024/01/21 10:31:29;;;;;;;;;;;3.00;99.90;;;;;;5115926;27;19984;-32
2024/01/21 10:33:56;;;;;;;;;;;3.00;99.90;;;;;;5117307;27;19973;-34
2024/01/21 10:36:23;;;;;;;;;;;3.00;99.90;;;;;;5116650;27;19970;-33
2024/01/21 10:38:49;;;;;;;;;;;3.10;99.90;;;;;;5117755;27;19959;-33
2024/01/21 10:41:20;;;;;;;;;;;3.00;99.90;;;;;;5115431;27;19924;-32
2024/01/21 10:43:47;;;;;;;;;;;3.10;99.90;;;;;;5130414;27;19930;-33
2024/01/21 10:46:14;;;;;;;;;;;3.10;99.90;;;;;;5115217;27;19934;-33
2024/01/21 10:48:41;;;;;;;;;;;3.10;99.90;;;;;;5116418;27;19980;-32
2024/01/21 10:51:08;;;;;;;;;;;3.10;99.90;;;;;;5118359;27;19924;-33
2024/01/21 10:53:34;;;;;;;;;;;3.20;99.90;;;;;;5101466;27;20257;-33
2024/01/21 10:56:01;;;;;;;;;;;3.20;99.90;;;;;;5114318;27;20423;-33
2024/01/21 10:58:29;;;;;;;;;;;3.30;99.90;;;;;;5133015;27;19923;-32
2024/01/21 11:00:55;;;;;;;;;;;3.20;99.90;;;;;;5132901;27;19969;-33
2024/01/21 11:03:23;;;;;;;;;;;3.30;99.90;;;;;;5115140;27;19924;-33
2024/01/21 11:05:51;;;;;;;;;;;3.30;99.90;;;;;;5115726;27;20002;-33
2024/01/21 11:08:18;;;;;;;;;;;3.40;99.90;;;;;;5133798;27;19931;-33
2024/01/21 11:10:45;;;;;;;;;;;3.40;99.90;;;;;;5130477;27;20324;-33
2024/01/21 11:13:21;;;;;;;;;;;3.40;99.90;;;;;;5114533;27;19923;-33
2024/01/21 11:15:49;;;;;;;;;;;3.40;99.90;;;;;;5111540;27;19948;-34
2024/01/21 11:18:16;;;;;;;;;;;3.40;99.90;;;;;;5116777;27;19980;-33
2024/01/21 11:20:42;;;;;;;;;;;3.40;99.90;;;;;;5113397;27;19924;-33
2024/01/21 11:23:14;;;;;;;;;;;3.50;99.90;;;;;;5116489;27;19928;-32
2024/01/21 11:25:41;;;;;;;;;;;3.50;99.90;;;;;;5132820;27;20370;-33
2024/01/21 11:28:22;;;;;;;;;;;3.50;99.90;;;;;;5130325;27;19999;-32
2024/01/21 11:30:54;;;;;;;;;;;3.60;99.90;;;;;;5115645;27;19923;-33
2024/01/21 11:33:23;;;;;;;;;;;3.50;99.90;;;;;;5109857;27;19930;-34
2024/01/21 11:35:50;;;;;;;;;;;3.50;99.90;;;;;;5109240;27;19941;-33
2024/01/21 11:38:16;;;;;;;;;;;3.50;99.90;;;;;;5127588;27;19935;-32
2024/01/21 11:40:43;;;;;;;;;;;3.50;99.90;;;;;;5115402;27;19950;-33
2024/01/21 11:43:09;;;;;;;;;;;3.50;99.90;;;;;;5132591;27;19972;-33
2024/01/21 11:45:38;;;;;;;;;;;3.50;99.90;;;;;;5113944;27;19939;-33
2024/01/21 11:48:10;;;;;;;;;;;3.60;99.90;;;;;;5104014;27;19924;-33
2024/01/21 11:50:36;;;;;;;;;;;3.60;99.90;;;;;;5133169;27;19993;-33
2024/01/21 11:53:03;;;;;;;;;;;3.60;99.90;;;;;;5132240;27;19966;-33
2024/01/21 11:55:30;;;;;;;;;;;3.60;99.90;;;;;;5115816;27;19923;-33
2024/01/21 11:57:56;;;;;;;;;;;3.60;99.90;;;;;;5114996;27;20366;-33
2024/01/21 12:00:23;;;;;;;;;;;3.60;99.90;;;;;;5132179;27;19972;-31
2024/01/21 12:02:49;;;;;;;;;;;3.70;99.90;;;;;;5115694;27;19923;-33
2024/01/21 12:05:19;;;;;;;;;;;3.60;99.90;;;;;;5133271;27;19931;-32
2024/01/21 12:07:46;;;;;;;;;;;3.60;99.90;;;;;;5129646;27;19930;-31
2024/01/21 12:10:13;;;;;;;;;;;3.60;99.90;;;;;;5112922;27;19988;-31
2024/01/21 12:12:40;;;;;;;;;;;3.60;99.90;;;;;;5113952;27;19970;-31
2024/01/21 12:15:06;;;;;;;;;;;3.60;99.90;;;;;;5113941;27;20379;-32
2024/01/21 12:17:33;;;;;;;;;;;3.70;99.90;;;;;;5113837;27;19928;-33
2024/01/21 12:20:00;;;;;;;;;;;3.70;99.90;;;;;;5128776;27;20019;-31
2024/01/21 12:22:37;;;;;;;;;;;3.70;99.90;;;;;;5114997;27;19989;-32
2024/01/21 12:25:04;;;;;;;;;;;3.70;99.90;;;;;;5111749;27;19923;-31
2024/01/21 12:27:31;;;;;;;;;;;3.70;99.90;;;;;;5107130;27;19967;-33
2024/01/21 12:29:58;;;;;;;;;;;3.80;99.90;;;;;;5116127;27;19924;-32
2024/01/21 12:32:24;;;;;;;;;;;3.70;99.90;;;;;;5114419;27;20366;-31
2024/01/21 12:34:51;;;;;;;;;;;3.70;99.90;;;;;;5111509;27;19953;-31
2024/01/21 12:37:17;;;;;;;;;;;3.70;99.90;;;;;;5114388;27;19930;-32
2024/01/21 12:39:45;;;;;;;;;;;3.80;99.90;;;;;;5112479;27;19969;-32
2024/01/21 12:42:12;;;;;;;;;;;3.80;99.90;;;;;;5114420;27;19927;-31
2024/01/21 12:44:39;;;;;;;;;;;3.80;99.90;;;;;;5130050;27;19923;-32
2024/01/21 12:47:05;;;;;;;;;;;3.80;99.90;;;;;;5114071;27;19977;-30
2024/01/21 12:49:32;;;;;;;;;;;3.80;99.90;;;;;;5131657;27;19923;-33
2024/01/21 12:51:59;;;;;;;;;;;3.80;99.90;;;;;;5114299;27;20394;-31
2024/01/21 12:54:26;;;;;;;;;;;3.90;99.90;;;;;;5115176;27;19976;-32
2024/01/21 12:56:54;;;;;;;;;;;3.90;99.90;;;;;;5113489;27;19960;-30
2024/01/21 12:59:21;;;;;;;;;;;3.90;99.90;;;;;;5112059;27;19950;-30
2024/01/21 13:01:48;;;;;;;;;;;3.90;99.90;;;;;;5114780;27;19972;-31
2024/01/21 13:04:14;;;;;;;;;;;3.90;99.90;;;;;;5113066;27;19927;-31
2024/01/21 13:06:41;;;;;;;;;;;3.90;99.90;;;;;;5115650;27;19928;-31
2024/01/21 13:09:07;;;;;;;;;;;3.90;99.90;;;;;;5115254;27;20337;-32
2024/01/21 13:11:34;;;;;;;;;;;3.90;99.90;;;;;;5132121;27;20341;-31
2024/01/21 13:14:02;;;;;;;;;;;4.00;99.90;;;;;;5114300;27;19923;-31
2024/01/21 13:16:29;;;;;;;;;;;4.00;99.90;;;;;;5113928;27;19949;-31
2024/01/21 13:18:55;;;;;;;;;;;4.00;99.90;;;;;;5114254;27;20443;-31
2024/01/21 13:21:22;;;;;;;;;;;4.10;99.90;;;;;;5113146;27;19938;-33
2024/01/21 13:23:49;;;;;;;;;;;4.00;99.90;;;;;;5112752;27;20344;-31
2024/01/21 13:26:15;;;;;;;;;;;4.10;99.90;;;;;;5107982;27;19950;-31
2024/01/21 13:30:43;;;;;;;;;;;4.10;99.90;;;;;;5107980;27;20443;-31
2024/01/21 13:31:38;;;;;;;;;;;4.10;99.90;;;;;;5110147;27;19938;-31
2024/01/21 13:34:04;;;;;;;;;;;4.10;99.90;;;;;;5108377;27;19931;-31
2024/01/21 13:36:31;;;;;;;;;;;4.20;99.90;;;;;;5114146;27;20006;-32
2024/01/21 13:38:58;;;;;;;;;;;4.20;99.90;;;;;;5109151;27;19958;-31
2024/01/21 13:41:24;;;;;;;;;;;4.20;99.90;;;;;;5132857;27;19984;-31
2024/01/21 13:43:51;;;;;;;;;;;4.30;99.90;;;;;;5111457;27;19976;-32
2024/01/21 13:46:18;;;;;;;;;;;4.40;99.90;;;;;;5131681;27;19924;-33
2024/01/21 13:48:46;;;;;;;;;;;4.30;99.90;;;;;;5112754;27;19978;-31
2024/01/21 13:51:12;;;;;;;;;;;4.40;99.90;;;;;;5131559;27;19976;-31
2024/01/21 13:53:39;;;;;;;;;;;4.40;99.90;;;;;;5113116;27;19927;-31
2024/01/21 13:56:06;;;;;;;;;;;4.50;99.90;;;;;;5111605;28;19954;-32
2024/01/21 13:58:33;;;;;;;;;;;4.50;99.90;;;;;;5111643;27;19988;-31
2024/01/21 14:00:59;;;;;;;;;;;4.60;99.90;;;;;;5110659;28;19927;-34
2024/01/21 14:03:26;;;;;;;;;;;4.60;99.90;;;;;;5099094;28;19974;-33
2024/01/21 14:05:55;;;;;;;;;;;4.50;99.90;;;;;;5091335;28;20403;-31
2024/01/21 14:08:22;;;;;;;;;;;4.50;99.90;;;;;;5110496;28;19924;-32
2024/01/21 14:10:48;;;;;;;;;;;4.40;99.90;;;;;;5109419;28;20394;-32
2024/01/21 14:13:15;;;;;;;;;;;4.40;99.90;;;;;;5111013;28;19924;-32
2024/01/21 14:15:43;;;;;;;;;;;4.40;99.90;;;;;;5090571;28;19924;-32
2024/01/21 14:18:09;;;;;;;;;;;4.40;99.90;;;;;;5109997;28;19924;-32
2024/01/21 14:20:36;;;;;;;;;;;4.40;99.90;;;;;;5091781;28;19924;-32
2024/01/21 14:23:04;;;;;;;;;;;4.40;99.90;;;;;;5090707;28;19928;-32
2024/01/21 14:25:32;;;;;;;;;;;4.30;99.90;;;;;;5092980;28;20003;-32
2024/01/21 14:27:58;;;;;;;;;;;4.40;99.90;;;;;;5092153;28;20006;-34
2024/01/21 14:30:25;;;;;;;;;;;4.40;99.90;;;;;;5091615;28;20004;-32